sensor_id;sensor_type;location;lat;lon;timestamp;temperature;humidity
64689;DHT22;62504;46.070;14.492;2023-03-16T00:01:18;4.80;94.00
64689;DHT22;62504;46.070;14.492;2023-03-16T00:03:44;4.80;94.30
64689;DHT22;62504;46.070;14.492;2023-03-16T00:06:10;4.80;94.30
64689;DHT22;62504;46.070;14.492;2023-03-16T00:08:35;4.80;94.60
64689;DHT22;62504;46.070;14.492;2023-03-16T00:11:02;4.80;94.80
64689;DHT22;62504;46.070;14.492;2023-03-16T00:13:29;4.80;94.50
64689;DHT22;62504;46.070;14.492;2023-03-16T00:15:59;4.80;94.80
64689;DHT22;62504;46.070;14.492;2023-03-16T00:18:27;4.60;94.90
64689;DHT22;62504;46.070;14.492;2023-03-16T00:20:57;4.70;95.20
64689;DHT22;62504;46.070;14.492;2023-03-16T00:23:24;4.80;95.40
64689;DHT22;62504;46.070;14.492;2023-03-16T00:25:57;4.80;95.20
64689;DHT22;62504;46.070;14.492;2023-03-16T00:28:25;4.50;95.20
64689;DHT22;62504;46.070;14.492;2023-03-16T00:30:51;4.30;96.00
64689;DHT22;62504;46.070;14.492;2023-03-16T00:33:17;4.70;95.80
64689;DHT22;62504;46.070;14.492;2023-03-16T00:35:47;5.00;95.50
64689;DHT22;62504;46.070;14.492;2023-03-16T00:38:16;5.00;96.20
64689;DHT22;62504;46.070;14.492;2023-03-16T00:40:43;5.10;96.10
64689;DHT22;62504;46.070;14.492;2023-03-16T00:43:09;5.00;96.10
64689;DHT22;62504;46.070;14.492;2023-03-16T00:45:34;5.00;95.90
64689;DHT22;62504;46.070;14.492;2023-03-16T00:48:00;4.90;95.90
64689;DHT22;62504;46.070;14.492;2023-03-16T00:50:27;5.20;96.30
64689;DHT22;62504;46.070;14.492;2023-03-16T00:52:52;5.20;96.00
64689;DHT22;62504;46.070;14.492;2023-03-16T00:55:21;5.20;95.80
64689;DHT22;62504;46.070;14.492;2023-03-16T00:57:47;5.10;95.70
64689;DHT22;62504;46.070;14.492;2023-03-16T01:00:12;4.80;96.00
64689;DHT22;62504;46.070;14.492;2023-03-16T01:02:42;4.90;96.20
64689;DHT22;62504;46.070;14.492;2023-03-16T01:05:10;5.00;96.50
64689;DHT22;62504;46.070;14.492;2023-03-16T01:07:37;5.10;97.00
64689;DHT22;62504;46.070;14.492;2023-03-16T01:10:04;5.10;96.20
64689;DHT22;62504;46.070;14.492;2023-03-16T01:12:30;5.10;96.40
64689;DHT22;62504;46.070;14.492;2023-03-16T01:14:55;5.20;96.60
64689;DHT22;62504;46.070;14.492;2023-03-16T01:17:21;5.20;96.80
64689;DHT22;62504;46.070;14.492;2023-03-16T01:19:47;5.10;97.20
64689;DHT22;62504;46.070;14.492;2023-03-16T01:22:14;5.10;96.90
64689;DHT22;62504;46.070;14.492;2023-03-16T01:24:40;5.00;96.40
64689;DHT22;62504;46.070;14.492;2023-03-16T01:27:07;5.00;97.50
64689;DHT22;62504;46.070;14.492;2023-03-16T01:29:33;5.10;97.30
64689;DHT22;62504;46.070;14.492;2023-03-16T01:32:00;5.00;97.10
64689;DHT22;62504;46.070;14.492;2023-03-16T01:34:26;5.00;96.60
64689;DHT22;62504;46.070;14.492;2023-03-16T01:36:52;5.00;97.30
64689;DHT22;62504;46.070;14.492;2023-03-16T01:39:18;5.10;96.90
64689;DHT22;62504;46.070;14.492;2023-03-16T01:41:45;5.10;97.40
64689;DHT22;62504;46.070;14.492;2023-03-16T01:44:26;5.10;96.80
64689;DHT22;62504;46.070;14.492;2023-03-16T01:46:55;5.10;96.70
64689;DHT22;62504;46.070;14.492;2023-03-16T01:49:39;5.00;96.70
64689;DHT22;62504;46.070;14.492;2023-03-16T01:52:09;5.00;97.00
64689;DHT22;62504;46.070;14.492;2023-03-16T01:54:41;5.10;97.40
64689;DHT22;62504;46.070;14.492;2023-03-16T01:59:52;5.10;96.30
64689;DHT22;62504;46.070;14.492;2023-03-16T02:02:22;5.10;97.30
64689;DHT22;62504;46.070;14.492;2023-03-16T02:05:11;5.20;98.10
64689;DHT22;62504;46.070;14.492;2023-03-16T02:07:46;5.10;98.40
64689;DHT22;62504;46.070;14.492;2023-03-16T02:10:14;5.10;96.50
64689;DHT22;62504;46.070;14.492;2023-03-16T02:12:42;4.90;96.60
64689;DHT22;62504;46.070;14.492;2023-03-16T02:15:08;4.80;97.60
64689;DHT22;62504;46.070;14.492;2023-03-16T02:17:35;4.80;96.90
64689;DHT22;62504;46.070;14.492;2023-03-16T02:22:45;4.80;98.10
64689;DHT22;62504;46.070;14.492;2023-03-16T02:25:14;4.80;98.00
64689;DHT22;62504;46.070;14.492;2023-03-16T02:30:43;4.80;98.20
64689;DHT22;62504;46.070;14.492;2023-03-16T02:33:10;4.80;98.10
64689;DHT22;62504;46.070;14.492;2023-03-16T02:35:36;4.80;98.90
64689;DHT22;62504;46.070;14.492;2023-03-16T02:38:01;4.90;99.00
64689;DHT22;62504;46.070;14.492;2023-03-16T02:40:30;4.90;98.50
64689;DHT22;62504;46.070;14.492;2023-03-16T02:43:08;4.80;98.80
64689;DHT22;62504;46.070;14.492;2023-03-16T02:45:42;4.70;98.60
64689;DHT22;62504;46.070;14.492;2023-03-16T02:48:22;4.80;98.50
64689;DHT22;62504;46.070;14.492;2023-03-16T02:50:52;4.70;98.90
64689;DHT22;62504;46.070;14.492;2023-03-16T02:53:17;4.80;99.10
64689;DHT22;62504;46.070;14.492;2023-03-16T02:55:44;4.80;99.20
64689;DHT22;62504;46.070;14.492;2023-03-16T02:58:11;4.70;99.50
64689;DHT22;62504;46.070;14.492;2023-03-16T03:00:37;4.60;99.70
64689;DHT22;62504;46.070;14.492;2023-03-16T03:03:04;4.60;99.60
64689;DHT22;62504;46.070;14.492;2023-03-16T03:05:30;4.70;99.80
64689;DHT22;62504;46.070;14.492;2023-03-16T03:07:56;4.60;99.90
64689;DHT22;62504;46.070;14.492;2023-03-16T03:10:21;4.40;99.90
64689;DHT22;62504;46.070;14.492;2023-03-16T03:12:47;4.50;99.90
64689;DHT22;62504;46.070;14.492;2023-03-16T03:15:15;4.60;99.90
64689;DHT22;62504;46.070;14.492;2023-03-16T03:17:41;4.60;99.90
64689;DHT22;62504;46.070;14.492;2023-03-16T03:20:10;4.50;99.90
64689;DHT22;62504;46.070;14.492;2023-03-16T03:22:44;4.40;99.90
64689;DHT22;62504;46.070;14.492;2023-03-16T03:25:12;4.30;99.90
64689;DHT22;62504;46.070;14.492;2023-03-16T03:27:39;4.10;99.90
64689;DHT22;62504;46.070;14.492;2023-03-16T03:30:08;4.30;99.90
64689;DHT22;62504;46.070;14.492;2023-03-16T03:32:34;4.40;99.90
64689;DHT22;62504;46.070;14.492;2023-03-16T03:34:59;4.30;99.90
64689;DHT22;62504;46.070;14.492;2023-03-16T03:37:25;4.20;99.90
64689;DHT22;62504;46.070;14.492;2023-03-16T03:39:51;4.20;99.90
64689;DHT22;62504;46.070;14.492;2023-03-16T03:42:18;4.10;99.90
64689;DHT22;62504;46.070;14.492;2023-03-16T03:44:43;4.10;99.90
64689;DHT22;62504;46.070;14.492;2023-03-16T03:47:09;4.00;99.90
64689;DHT22;62504;46.070;14.492;2023-03-16T03:49:35;3.90;99.90
64689;DHT22;62504;46.070;14.492;2023-03-16T03:52:01;4.00;99.90
64689;DHT22;62504;46.070;14.492;2023-03-16T03:54:29;4.10;99.90
64689;DHT22;62504;46.070;14.492;2023-03-16T03:56:55;3.90;99.90
64689;DHT22;62504;46.070;14.492;2023-03-16T03:59:21;3.90;99.90
64689;DHT22;62504;46.070;14.492;2023-03-16T04:01:47;3.90;99.90
64689;DHT22;62504;46.070;14.492;2023-03-16T04:04:14;4.00;99.90
64689;DHT22;62504;46.070;14.492;2023-03-16T04:06:40;3.90;99.90
64689;DHT22;62504;46.070;14.492;2023-03-16T04:09:06;3.90;99.90
64689;DHT22;62504;46.070;14.492;2023-03-16T04:11:32;3.90;99.90
64689;DHT22;62504;46.070;14.492;2023-03-16T04:13:58;4.00;99.90
64689;DHT22;62504;46.070;14.492;2023-03-16T04:16:24;4.00;99.90
64689;DHT22;62504;46.070;14.492;2023-03-16T04:18:52;3.80;99.90
64689;DHT22;62504;46.070;14.492;2023-03-16T04:21:19;3.70;99.90
64689;DHT22;62504;46.070;14.492;2023-03-16T04:23:46;3.80;99.90
64689;DHT22;62504;46.070;14.492;2023-03-16T04:26:12;4.00;99.90
64689;DHT22;62504;46.070;14.492;2023-03-16T04:28:37;3.90;99.90
64689;DHT22;62504;46.070;14.492;2023-03-16T04:31:05;3.80;99.90
64689;DHT22;62504;46.070;14.492;2023-03-16T04:33:32;3.60;99.90
64689;DHT22;62504;46.070;14.492;2023-03-16T04:35:58;3.60;99.90
64689;DHT22;62504;46.070;14.492;2023-03-16T04:38:24;3.50;99.90
64689;DHT22;62504;46.070;14.492;2023-03-16T04:40:50;3.50;99.90
64689;DHT22;62504;46.070;14.492;2023-03-16T04:43:15;3.60;99.90
64689;DHT22;62504;46.070;14.492;2023-03-16T04:45:41;3.70;99.90
64689;DHT22;62504;46.070;14.492;2023-03-16T04:48:07;3.60;99.90
64689;DHT22;62504;46.070;14.492;2023-03-16T04:50:34;3.60;99.90
64689;DHT22;62504;46.070;14.492;2023-03-16T04:53:00;3.70;99.90
64689;DHT22;62504;46.070;14.492;2023-03-16T04:55:26;3.60;99.90
64689;DHT22;62504;46.070;14.492;2023-03-16T04:57:52;3.80;99.90
64689;DHT22;62504;46.070;14.492;2023-03-16T05:00:18;3.60;99.90
64689;DHT22;62504;46.070;14.492;2023-03-16T05:02:48;3.60;99.90
64689;DHT22;62504;46.070;14.492;2023-03-16T05:05:15;3.50;99.90
64689;DHT22;62504;46.070;14.492;2023-03-16T05:07:44;3.50;99.90
64689;DHT22;62504;46.070;14.492;2023-03-16T05:10:12;3.50;99.90
64689;DHT22;62504;46.070;14.492;2023-03-16T05:12:38;3.60;99.90
64689;DHT22;62504;46.070;14.492;2023-03-16T05:15:05;3.30;99.90
64689;DHT22;62504;46.070;14.492;2023-03-16T05:17:31;3.30;99.90
64689;DHT22;62504;46.070;14.492;2023-03-16T05:19:57;3.50;99.90
64689;DHT22;62504;46.070;14.492;2023-03-16T05:22:23;3.50;99.90
64689;DHT22;62504;46.070;14.492;2023-03-16T05:24:49;3.40;99.90
64689;DHT22;62504;46.070;14.492;2023-03-16T05:27:14;3.20;99.90
64689;DHT22;62504;46.070;14.492;2023-03-16T05:29:40;3.20;99.90
64689;DHT22;62504;46.070;14.492;2023-03-16T05:32:11;3.40;99.90
64689;DHT22;62504;46.070;14.492;2023-03-16T05:34:37;3.50;99.90
64689;DHT22;62504;46.070;14.492;2023-03-16T05:37:03;3.50;99.90
64689;DHT22;62504;46.070;14.492;2023-03-16T05:39:29;3.40;99.90
64689;DHT22;62504;46.070;14.492;2023-03-16T05:41:58;3.50;99.90
64689;DHT22;62504;46.070;14.492;2023-03-16T05:44:23;3.50;99.90
64689;DHT22;62504;46.070;14.492;2023-03-16T05:46:49;3.50;99.90
64689;DHT22;62504;46.070;14.492;2023-03-16T05:49:15;3.60;99.90
64689;DHT22;62504;46.070;14.492;2023-03-16T05:51:41;3.40;99.90
64689;DHT22;62504;46.070;14.492;2023-03-16T05:54:07;3.50;99.90
64689;DHT22;62504;46.070;14.492;2023-03-16T05:56:33;3.60;99.90
64689;DHT22;62504;46.070;14.492;2023-03-16T05:58:59;3.60;99.90
64689;DHT22;62504;46.070;14.492;2023-03-16T06:01:25;3.50;99.90
64689;DHT22;62504;46.070;14.492;2023-03-16T06:03:51;3.50;99.90
64689;DHT22;62504;46.070;14.492;2023-03-16T06:06:18;3.50;99.90
64689;DHT22;62504;46.070;14.492;2023-03-16T06:08:44;3.50;99.90
64689;DHT22;62504;46.070;14.492;2023-03-16T06:11:10;3.50;99.90
64689;DHT22;62504;46.070;14.492;2023-03-16T06:13:37;3.60;99.90
64689;DHT22;62504;46.070;14.492;2023-03-16T06:16:03;3.60;99.90
64689;DHT22;62504;46.070;14.492;2023-03-16T06:18:31;3.70;99.90
64689;DHT22;62504;46.070;14.492;2023-03-16T06:20:57;3.90;99.90
64689;DHT22;62504;46.070;14.492;2023-03-16T06:23:23;4.10;99.90
64689;DHT22;62504;46.070;14.492;2023-03-16T06:25:49;4.20;99.90
64689;DHT22;62504;46.070;14.492;2023-03-16T06:28:15;4.40;99.90
64689;DHT22;62504;46.070;14.492;2023-03-16T06:30:41;4.80;99.90
64689;DHT22;62504;46.070;14.492;2023-03-16T06:33:07;6.00;99.90
64689;DHT22;62504;46.070;14.492;2023-03-16T06:35:33;6.10;99.90
64689;DHT22;62504;46.070;14.492;2023-03-16T06:37:59;6.10;99.90
64689;DHT22;62504;46.070;14.492;2023-03-16T06:43:15;6.40;99.90
64689;DHT22;62504;46.070;14.492;2023-03-16T06:45:42;6.30;99.90
64689;DHT22;62504;46.070;14.492;2023-03-16T06:48:07;6.60;99.90
64689;DHT22;62504;46.070;14.492;2023-03-16T06:50:34;6.90;99.90
64689;DHT22;62504;46.070;14.492;2023-03-16T06:53:00;6.50;99.90
64689;DHT22;62504;46.070;14.492;2023-03-16T06:55:26;6.60;99.90
64689;DHT22;62504;46.070;14.492;2023-03-16T06:57:51;7.40;99.90
64689;DHT22;62504;46.070;14.492;2023-03-16T07:00:17;8.30;99.70
64689;DHT22;62504;46.070;14.492;2023-03-16T07:02:43;9.60;97.00
64689;DHT22;62504;46.070;14.492;2023-03-16T07:05:09;10.10;94.70
64689;DHT22;62504;46.070;14.492;2023-03-16T07:07:41;9.30;95.40
64689;DHT22;62504;46.070;14.492;2023-03-16T07:10:11;8.40;96.50
64689;DHT22;62504;46.070;14.492;2023-03-16T07:12:36;8.20;96.10
64689;DHT22;62504;46.070;14.492;2023-03-16T07:15:03;8.10;96.00
64689;DHT22;62504;46.070;14.492;2023-03-16T07:17:28;8.00;96.50
64689;DHT22;62504;46.070;14.492;2023-03-16T07:19:54;8.30;96.20
64689;DHT22;62504;46.070;14.492;2023-03-16T07:22:20;8.20;95.40
64689;DHT22;62504;46.070;14.492;2023-03-16T07:24:46;8.70;95.70
64689;DHT22;62504;46.070;14.492;2023-03-16T07:27:16;8.90;94.60
64689;DHT22;62504;46.070;14.492;2023-03-16T07:29:41;8.70;94.90
64689;DHT22;62504;46.070;14.492;2023-03-16T07:32:07;10.00;92.80
64689;DHT22;62504;46.070;14.492;2023-03-16T07:34:33;9.60;92.50
64689;DHT22;62504;46.070;14.492;2023-03-16T07:36:59;8.50;93.90
64689;DHT22;62504;46.070;14.492;2023-03-16T07:39:25;8.20;94.50
64689;DHT22;62504;46.070;14.492;2023-03-16T07:41:51;7.80;95.20
64689;DHT22;62504;46.070;14.492;2023-03-16T07:44:16;7.30;95.80
64689;DHT22;62504;46.070;14.492;2023-03-16T07:46:42;7.80;96.60
64689;DHT22;62504;46.070;14.492;2023-03-16T07:49:08;8.40;95.50
64689;DHT22;62504;46.070;14.492;2023-03-16T07:51:35;8.50;95.70
64689;DHT22;62504;46.070;14.492;2023-03-16T07:54:00;8.90;95.10
64689;DHT22;62504;46.070;14.492;2023-03-16T07:56:26;9.30;94.80
64689;DHT22;62504;46.070;14.492;2023-03-16T07:58:51;9.40;94.60
64689;DHT22;62504;46.070;14.492;2023-03-16T08:01:17;9.10;93.20
64689;DHT22;62504;46.070;14.492;2023-03-16T08:03:43;8.80;93.30
64689;DHT22;62504;46.070;14.492;2023-03-16T08:06:09;9.40;93.20
64689;DHT22;62504;46.070;14.492;2023-03-16T08:08:36;9.90;93.70
64689;DHT22;62504;46.070;14.492;2023-03-16T08:11:02;10.20;93.10
64689;DHT22;62504;46.070;14.492;2023-03-16T08:13:27;10.30;92.60
64689;DHT22;62504;46.070;14.492;2023-03-16T08:15:54;10.90;92.10
64689;DHT22;62504;46.070;14.492;2023-03-16T08:18:24;10.50;90.70
64689;DHT22;62504;46.070;14.492;2023-03-16T08:20:50;10.90;90.00
64689;DHT22;62504;46.070;14.492;2023-03-16T08:23:16;10.60;89.50
64689;DHT22;62504;46.070;14.492;2023-03-16T08:25:42;10.60;90.60
64689;DHT22;62504;46.070;14.492;2023-03-16T08:28:08;10.80;90.60
64689;DHT22;62504;46.070;14.492;2023-03-16T08:30:35;11.10;87.10
64689;DHT22;62504;46.070;14.492;2023-03-16T08:33:01;11.40;86.90
64689;DHT22;62504;46.070;14.492;2023-03-16T08:35:28;11.30;83.00
64689;DHT22;62504;46.070;14.492;2023-03-16T08:37:54;11.90;77.70
64689;DHT22;62504;46.070;14.492;2023-03-16T08:40:21;10.90;79.30
64689;DHT22;62504;46.070;14.492;2023-03-16T08:42:48;10.90;78.70
64689;DHT22;62504;46.070;14.492;2023-03-16T08:45:17;11.10;78.30
64689;DHT22;62504;46.070;14.492;2023-03-16T08:47:44;10.70;79.60
64689;DHT22;62504;46.070;14.492;2023-03-16T08:50:11;10.90;79.50
64689;DHT22;62504;46.070;14.492;2023-03-16T08:52:37;11.10;80.50
64689;DHT22;62504;46.070;14.492;2023-03-16T08:55:04;11.30;78.80
64689;DHT22;62504;46.070;14.492;2023-03-16T08:57:32;10.80;79.60
64689;DHT22;62504;46.070;14.492;2023-03-16T08:59:58;10.70;80.40
64689;DHT22;62504;46.070;14.492;2023-03-16T09:02:23;10.50;80.80
64689;DHT22;62504;46.070;14.492;2023-03-16T09:04:50;10.60;80.30
64689;DHT22;62504;46.070;14.492;2023-03-16T09:07:17;10.40;79.60
64689;DHT22;62504;46.070;14.492;2023-03-16T09:09:43;11.50;81.20
64689;DHT22;62504;46.070;14.492;2023-03-16T09:12:10;12.20;77.00
64689;DHT22;62504;46.070;14.492;2023-03-16T09:14:37;12.10;77.90
64689;DHT22;62504;46.070;14.492;2023-03-16T09:17:04;12.20;77.40
64689;DHT22;62504;46.070;14.492;2023-03-16T09:19:32;12.90;77.50
64689;DHT22;62504;46.070;14.492;2023-03-16T09:21:58;12.50;75.50
64689;DHT22;62504;46.070;14.492;2023-03-16T09:24:23;12.20;75.10
64689;DHT22;62504;46.070;14.492;2023-03-16T09:26:50;12.80;75.50
64689;DHT22;62504;46.070;14.492;2023-03-16T09:29:16;13.60;74.90
64689;DHT22;62504;46.070;14.492;2023-03-16T09:31:43;13.60;72.60
64689;DHT22;62504;46.070;14.492;2023-03-16T09:34:10;12.60;75.00
64689;DHT22;62504;46.070;14.492;2023-03-16T09:36:36;12.50;74.70
64689;DHT22;62504;46.070;14.492;2023-03-16T09:39:02;12.30;74.90
64689;DHT22;62504;46.070;14.492;2023-03-16T09:41:30;12.30;74.60
64689;DHT22;62504;46.070;14.492;2023-03-16T09:46:42;13.10;75.10
64689;DHT22;62504;46.070;14.492;2023-03-16T09:49:10;13.70;74.00
64689;DHT22;62504;46.070;14.492;2023-03-16T09:52:04;13.40;73.10
64689;DHT22;62504;46.070;14.492;2023-03-16T09:54:52;12.90;73.40
64689;DHT22;62504;46.070;14.492;2023-03-16T09:57:28;12.90;74.20
64689;DHT22;62504;46.070;14.492;2023-03-16T10:00:14;12.20;75.00
64689;DHT22;62504;46.070;14.492;2023-03-16T10:02:43;12.70;74.90
64689;DHT22;62504;46.070;14.492;2023-03-16T10:05:14;12.60;73.50
64689;DHT22;62504;46.070;14.492;2023-03-16T10:12:37;13.40;72.00
64689;DHT22;62504;46.070;14.492;2023-03-16T10:15:07;12.60;73.10
64689;DHT22;62504;46.070;14.492;2023-03-16T10:17:45;12.90;73.10
64689;DHT22;62504;46.070;14.492;2023-03-16T10:20:19;13.10;74.70
64689;DHT22;62504;46.070;14.492;2023-03-16T10:22:47;13.00;73.90
64689;DHT22;62504;46.070;14.492;2023-03-16T10:25:21;13.10;73.40
64689;DHT22;62504;46.070;14.492;2023-03-16T10:27:51;13.20;72.30
64689;DHT22;62504;46.070;14.492;2023-03-16T10:30:24;13.10;73.80
64689;DHT22;62504;46.070;14.492;2023-03-16T10:32:52;12.90;71.90
64689;DHT22;62504;46.070;14.492;2023-03-16T10:35:40;12.60;72.50
64689;DHT22;62504;46.070;14.492;2023-03-16T10:44:04;12.00;74.70
64689;DHT22;62504;46.070;14.492;2023-03-16T10:46:41;12.20;74.80
64689;DHT22;62504;46.070;14.492;2023-03-16T10:54:50;11.30;74.60
64689;DHT22;62504;46.070;14.492;2023-03-16T10:57:31;11.40;75.10
64689;DHT22;62504;46.070;14.492;2023-03-16T11:00:15;11.90;76.50
64689;DHT22;62504;46.070;14.492;2023-03-16T11:02:46;12.10;78.60
64689;DHT22;62504;46.070;14.492;2023-03-16T11:10:32;12.00;76.00
64689;DHT22;62504;46.070;14.492;2023-03-16T11:13:16;11.90;77.10
64689;DHT22;62504;46.070;14.492;2023-03-16T11:15:55;11.60;77.60
64689;DHT22;62504;46.070;14.492;2023-03-16T11:18:29;11.80;80.00
64689;DHT22;62504;46.070;14.492;2023-03-16T11:20:56;11.80;76.10
64689;DHT22;62504;46.070;14.492;2023-03-16T11:23:33;11.40;75.40
64689;DHT22;62504;46.070;14.492;2023-03-16T11:26:02;11.30;75.80
64689;DHT22;62504;46.070;14.492;2023-03-16T11:28:42;11.40;76.40
64689;DHT22;62504;46.070;14.492;2023-03-16T11:31:18;11.70;77.70
64689;DHT22;62504;46.070;14.492;2023-03-16T11:33:46;11.30;75.10
64689;DHT22;62504;46.070;14.492;2023-03-16T11:36:37;11.20;75.40
64689;DHT22;62504;46.070;14.492;2023-03-16T11:39:24;11.50;76.60
64689;DHT22;62504;46.070;14.492;2023-03-16T11:50:09;11.30;73.20
64689;DHT22;62504;46.070;14.492;2023-03-16T11:55:41;11.30;73.80
64689;DHT22;62504;46.070;14.492;2023-03-16T12:11:51;11.30;72.10
64689;DHT22;62504;46.070;14.492;2023-03-16T12:17:03;11.00;72.60
64689;DHT22;62504;46.070;14.492;2023-03-16T12:22:35;11.50;74.70
64689;DHT22;62504;46.070;14.492;2023-03-16T12:25:18;11.30;72.00
64689;DHT22;62504;46.070;14.492;2023-03-16T12:27:48;11.30;72.40
64689;DHT22;62504;46.070;14.492;2023-03-16T12:33:36;10.90;71.70
64689;DHT22;62504;46.070;14.492;2023-03-16T12:38:52;10.90;72.30
64689;DHT22;62504;46.070;14.492;2023-03-16T12:49:32;11.20;72.90
64689;DHT22;62504;46.070;14.492;2023-03-16T12:52:08;11.30;73.10
64689;DHT22;62504;46.070;14.492;2023-03-16T12:54:34;11.00;71.10
64689;DHT22;62504;46.070;14.492;2023-03-16T12:57:14;10.90;71.30
64689;DHT22;62504;46.070;14.492;2023-03-16T12:59:42;11.00;71.60
64689;DHT22;62504;46.070;14.492;2023-03-16T13:02:30;11.00;71.60
64689;DHT22;62504;46.070;14.492;2023-03-16T13:07:44;11.10;73.70
64689;DHT22;62504;46.070;14.492;2023-03-16T13:10:13;11.20;72.00
64689;DHT22;62504;46.070;14.492;2023-03-16T13:12:39;11.20;71.70
64689;DHT22;62504;46.070;14.492;2023-03-16T13:15:26;11.30;71.70
64689;DHT22;62504;46.070;14.492;2023-03-16T13:20:54;11.30;72.20
64689;DHT22;62504;46.070;14.492;2023-03-16T13:23:22;11.40;72.20
64689;DHT22;62504;46.070;14.492;2023-03-16T13:26:11;11.40;71.60
64689;DHT22;62504;46.070;14.492;2023-03-16T13:28:39;11.40;71.20
64689;DHT22;62504;46.070;14.492;2023-03-16T13:31:19;11.50;70.60
64689;DHT22;62504;46.070;14.492;2023-03-16T13:33:46;11.40;70.70
64689;DHT22;62504;46.070;14.492;2023-03-16T13:36:15;11.40;70.60
64689;DHT22;62504;46.070;14.492;2023-03-16T13:38:42;11.30;70.50
64689;DHT22;62504;46.070;14.492;2023-03-16T13:41:13;11.40;71.20
64689;DHT22;62504;46.070;14.492;2023-03-16T13:43:42;11.60;71.90
64689;DHT22;62504;46.070;14.492;2023-03-16T13:46:20;11.70;71.30
64689;DHT22;62504;46.070;14.492;2023-03-16T13:48:47;11.40;69.70
64689;DHT22;62504;46.070;14.492;2023-03-16T13:51:18;11.50;71.00
64689;DHT22;62504;46.070;14.492;2023-03-16T13:53:45;11.40;69.70
64689;DHT22;62504;46.070;14.492;2023-03-16T13:56:14;11.20;70.20
64689;DHT22;62504;46.070;14.492;2023-03-16T13:58:43;11.40;70.10
64689;DHT22;62504;46.070;14.492;2023-03-16T14:01:26;11.50;69.50
64689;DHT22;62504;46.070;14.492;2023-03-16T14:03:54;11.40;69.30
64689;DHT22;62504;46.070;14.492;2023-03-16T14:06:26;11.50;70.20
64689;DHT22;62504;46.070;14.492;2023-03-16T14:09:00;11.60;70.70
64689;DHT22;62504;46.070;14.492;2023-03-16T14:11:27;11.50;69.60
64689;DHT22;62504;46.070;14.492;2023-03-16T14:13:58;11.50;70.10
64689;DHT22;62504;46.070;14.492;2023-03-16T14:16:26;11.60;70.80
64689;DHT22;62504;46.070;14.492;2023-03-16T14:19:20;11.60;70.20
64689;DHT22;62504;46.070;14.492;2023-03-16T14:21:49;11.60;70.70
64689;DHT22;62504;46.070;14.492;2023-03-16T14:24:36;11.40;70.60
64689;DHT22;62504;46.070;14.492;2023-03-16T14:27:41;11.40;70.00
64689;DHT22;62504;46.070;14.492;2023-03-16T14:30:18;11.50;70.40
64689;DHT22;62504;46.070;14.492;2023-03-16T14:35:30;11.50;70.20
64689;DHT22;62504;46.070;14.492;2023-03-16T14:37:56;11.60;70.10
64689;DHT22;62504;46.070;14.492;2023-03-16T14:40:28;11.60;69.80
64689;DHT22;62504;46.070;14.492;2023-03-16T14:42:57;11.60;69.30
64689;DHT22;62504;46.070;14.492;2023-03-16T14:45:31;11.60;69.00
64689;DHT22;62504;46.070;14.492;2023-03-16T14:48:05;11.40;68.50
64689;DHT22;62504;46.070;14.492;2023-03-16T14:50:31;11.50;68.80
64689;DHT22;62504;46.070;14.492;2023-03-16T14:52:59;11.60;69.20
64689;DHT22;62504;46.070;14.492;2023-03-16T14:55:26;11.60;69.20
64689;DHT22;62504;46.070;14.492;2023-03-16T14:57:52;11.40;68.50
64689;DHT22;62504;46.070;14.492;2023-03-16T15:00:19;11.60;68.80
64689;DHT22;62504;46.070;14.492;2023-03-16T15:03:07;11.50;69.10
64689;DHT22;62504;46.070;14.492;2023-03-16T15:05:36;11.60;68.40
64689;DHT22;62504;46.070;14.492;2023-03-16T15:08:06;11.50;68.80
64689;DHT22;62504;46.070;14.492;2023-03-16T15:10:34;11.50;69.10
64689;DHT22;62504;46.070;14.492;2023-03-16T15:13:00;11.50;68.90
64689;DHT22;62504;46.070;14.492;2023-03-16T15:15:37;11.50;69.60
64689;DHT22;62504;46.070;14.492;2023-03-16T15:18:03;11.50;69.10
64689;DHT22;62504;46.070;14.492;2023-03-16T15:20:31;11.40;69.10
64689;DHT22;62504;46.070;14.492;2023-03-16T15:22:59;11.40;69.20
64689;DHT22;62504;46.070;14.492;2023-03-16T15:25:52;11.40;68.50
64689;DHT22;62504;46.070;14.492;2023-03-16T15:28:24;11.50;68.30
64689;DHT22;62504;46.070;14.492;2023-03-16T15:30:53;11.70;68.50
64689;DHT22;62504;46.070;14.492;2023-03-16T15:33:20;11.60;68.00
64689;DHT22;62504;46.070;14.492;2023-03-16T15:35:48;11.40;68.10
64689;DHT22;62504;46.070;14.492;2023-03-16T15:38:21;11.30;68.10
64689;DHT22;62504;46.070;14.492;2023-03-16T15:40:47;11.40;68.60
64689;DHT22;62504;46.070;14.492;2023-03-16T15:43:17;11.40;68.60
64689;DHT22;62504;46.070;14.492;2023-03-16T15:45:44;11.40;68.90
64689;DHT22;62504;46.070;14.492;2023-03-16T15:48:12;11.30;69.20
64689;DHT22;62504;46.070;14.492;2023-03-16T15:50:40;11.20;69.20
64689;DHT22;62504;46.070;14.492;2023-03-16T15:53:23;11.20;69.60
64689;DHT22;62504;46.070;14.492;2023-03-16T15:55:53;11.40;69.50
64689;DHT22;62504;46.070;14.492;2023-03-16T15:58:23;11.40;68.90
64689;DHT22;62504;46.070;14.492;2023-03-16T16:00:51;11.50;69.40
64689;DHT22;62504;46.070;14.492;2023-03-16T16:03:22;11.50;70.80
64689;DHT22;62504;46.070;14.492;2023-03-16T16:05:48;11.50;71.30
64689;DHT22;62504;46.070;14.492;2023-03-16T16:08:14;11.50;70.00
64689;DHT22;62504;46.070;14.492;2023-03-16T16:10:41;11.50;69.30
64689;DHT22;62504;46.070;14.492;2023-03-16T16:13:19;11.30;67.40
64689;DHT22;62504;46.070;14.492;2023-03-16T16:15:45;11.30;67.50
64689;DHT22;62504;46.070;14.492;2023-03-16T16:18:28;11.20;67.00
64689;DHT22;62504;46.070;14.492;2023-03-16T16:20:55;11.10;66.80
64689;DHT22;62504;46.070;14.492;2023-03-16T16:23:22;11.00;67.10
64689;DHT22;62504;46.070;14.492;2023-03-16T16:25:48;10.90;67.10
64689;DHT22;62504;46.070;14.492;2023-03-16T16:28:23;10.90;66.90
64689;DHT22;62504;46.070;14.492;2023-03-16T16:30:51;11.10;68.40
64689;DHT22;62504;46.070;14.492;2023-03-16T16:33:33;11.00;67.60
64689;DHT22;62504;46.070;14.492;2023-03-16T16:36:13;11.00;67.20
64689;DHT22;62504;46.070;14.492;2023-03-16T16:38:39;11.00;67.40
64689;DHT22;62504;46.070;14.492;2023-03-16T16:41:07;10.90;68.00
64689;DHT22;62504;46.070;14.492;2023-03-16T16:43:40;10.80;67.80
64689;DHT22;62504;46.070;14.492;2023-03-16T16:46:14;10.80;68.00
64689;DHT22;62504;46.070;14.492;2023-03-16T16:48:47;10.80;67.80
64689;DHT22;62504;46.070;14.492;2023-03-16T16:51:18;10.70;67.00
64689;DHT22;62504;46.070;14.492;2023-03-16T16:53:45;10.70;67.20
64689;DHT22;62504;46.070;14.492;2023-03-16T16:56:15;10.70;67.20
64689;DHT22;62504;46.070;14.492;2023-03-16T16:58:43;10.50;67.00
64689;DHT22;62504;46.070;14.492;2023-03-16T17:01:16;10.50;67.30
64689;DHT22;62504;46.070;14.492;2023-03-16T17:03:45;10.40;66.90